createdAt,value
2018-12-12T00:01:48.388Z,1.57
2018-12-12T00:04:51.480Z,2.93
2018-12-12T00:07:54.633Z,2.87
2018-12-12T00:10:57.890Z,2.90
2018-12-12T00:14:00.997Z,2.83
2018-12-12T00:17:04.236Z,3.83
2018-12-12T00:20:07.432Z,3.73
2018-12-12T00:23:10.542Z,3.37
2018-12-12T00:26:13.721Z,2.07
2018-12-12T00:29:16.899Z,2.03
2018-12-12T00:32:20.049Z,3.47
2018-12-12T00:35:23.287Z,2.20
2018-12-12T00:38:26.365Z,4.13
2018-12-12T00:41:29.478Z,1.70
2018-12-12T00:44:32.643Z,2.40
2018-12-12T00:47:35.799Z,3.93
2018-12-12T00:50:38.953Z,2.77
2018-12-12T00:53:42.190Z,2.63
2018-12-12T00:56:45.390Z,2.27
2018-12-12T00:59:48.664Z,2.90
2018-12-12T01:02:51.865Z,2.27
2018-12-12T01:05:54.972Z,2.17
2018-12-12T01:08:58.125Z,1.97
2018-12-12T01:12:06.269Z,1.70
2018-12-12T01:15:09.421Z,3.20
2018-12-12T01:18:12.666Z,3.47
2018-12-12T01:21:15.814Z,1.73
2018-12-12T01:24:18.970Z,1.00
2018-12-12T01:27:22.111Z,2.83
2018-12-12T01:30:25.242Z,1.00
2018-12-12T01:33:28.486Z,2.17
2018-12-12T01:36:31.561Z,3.30
2018-12-12T01:39:35.198Z,5.27
2018-12-12T01:42:38.351Z,1.97
2018-12-12T01:45:41.437Z,3.30
2018-12-12T01:48:44.512Z,3.60
2018-12-12T01:51:47.692Z,1.50
2018-12-12T01:54:50.856Z,6.10
2018-12-12T01:57:53.989Z,3.97
2018-12-12T02:00:57.107Z,2.63
2018-12-12T02:04:00.204Z,4.17
2018-12-12T02:07:03.260Z,4.97
2018-12-12T02:10:06.972Z,5.07
2018-12-12T02:13:21.512Z,3.20
2018-12-12T02:16:25.164Z,4.67
2018-12-12T02:19:28.482Z,4.43
2018-12-12T02:22:31.641Z,3.40
2018-12-12T02:25:34.768Z,4.13
2018-12-12T02:28:37.890Z,2.23
2018-12-12T02:31:41.009Z,2.27
2018-12-12T02:34:44.086Z,4.50
2018-12-12T02:37:47.222Z,3.20
2018-12-12T02:40:50.424Z,2.23
2018-12-12T02:43:53.594Z,2.27
2018-12-12T02:46:56.713Z,4.83
2018-12-12T02:49:59.802Z,3.20
2018-12-12T02:53:03.033Z,4.33
2018-12-12T02:56:06.142Z,2.17
2018-12-12T02:59:09.260Z,1.70
2018-12-12T03:02:12.349Z,3.30
2018-12-12T03:05:15.479Z,2.53
2018-12-12T03:08:18.619Z,3.27
2018-12-12T03:11:24.032Z,2.03
2018-12-12T03:14:27.136Z,2.00
2018-12-12T03:17:30.210Z,1.27
2018-12-12T03:20:33.367Z,2.03
2018-12-12T03:23:36.569Z,4.27
2018-12-12T03:26:39.796Z,4.20
2018-12-12T03:29:42.975Z,2.50
2018-12-12T03:32:46.100Z,4.63
2018-12-12T03:35:50.378Z,4.23
2018-12-12T03:38:53.472Z,1.60
2018-12-12T03:41:56.595Z,1.73
2018-12-12T03:44:59.817Z,3.33
2018-12-12T03:48:02.943Z,3.13
2018-12-12T03:51:06.129Z,3.03
2018-12-12T03:54:09.270Z,2.90
2018-12-12T03:57:12.417Z,1.73
2018-12-12T04:00:15.552Z,1.93
2018-12-12T04:03:18.709Z,1.33
2018-12-12T04:06:21.798Z,1.13
2018-12-12T04:09:24.923Z,2.93
2018-12-12T04:12:28.006Z,1.47
2018-12-12T04:15:31.232Z,3.87
2018-12-12T04:18:34.401Z,1.80
2018-12-12T04:21:37.579Z,4.57
2018-12-12T04:24:41.085Z,3.63
2018-12-12T04:27:44.192Z,2.10
2018-12-12T04:30:47.347Z,4.47
2018-12-12T04:33:50.470Z,4.43
2018-12-12T04:36:53.669Z,4.60
2018-12-12T04:39:56.774Z,2.27
2018-12-12T04:42:59.924Z,2.23
2018-12-12T04:46:03.127Z,3.50
2018-12-12T04:49:06.215Z,3.77
2018-12-12T04:52:09.293Z,2.83
2018-12-12T04:55:12.399Z,2.17
2018-12-12T04:58:15.641Z,5.33
2018-12-12T05:01:18.742Z,4.03
2018-12-12T05:04:22.882Z,3.37
2018-12-12T05:07:26.004Z,2.23
2018-12-12T05:10:29.087Z,16.93
2018-12-12T05:13:32.220Z,4.63
2018-12-12T05:16:35.432Z,5.40
2018-12-12T05:19:38.597Z,4.73
2018-12-12T05:22:41.770Z,2.60
2018-12-12T05:25:44.881Z,4.77
2018-12-12T05:28:48.104Z,5.73
2018-12-12T05:31:51.320Z,5.40
2018-12-12T05:34:54.408Z,3.07
2018-12-12T05:37:57.598Z,2.17
2018-12-12T05:41:00.716Z,1.57
2018-12-12T05:44:03.959Z,3.30
2018-12-12T05:47:07.049Z,4.70
2018-12-12T05:50:10.514Z,2.90
2018-12-12T05:53:13.738Z,1.83
2018-12-12T05:56:16.878Z,2.43
2018-12-12T05:59:26.542Z,3.50
2018-12-12T06:02:29.637Z,2.70
2018-12-12T06:05:32.850Z,1.93
2018-12-12T06:08:36.082Z,1.00
2018-12-12T06:11:40.303Z,7.50
2018-12-12T06:14:43.585Z,1.67
2018-12-12T06:17:47.826Z,2.13
2018-12-12T06:20:51.010Z,1.97
2018-12-12T06:23:54.095Z,3.00
2018-12-12T06:26:57.299Z,3.70
2018-12-12T06:30:00.411Z,4.03
2018-12-12T06:33:04.567Z,45.47
2018-12-12T06:36:07.698Z,73.50
2018-12-12T06:39:10.817Z,101.03
2018-12-12T06:42:13.941Z,83.20
2018-12-12T06:45:19.135Z,74.83
2018-12-12T06:48:22.279Z,65.97
2018-12-12T06:51:25.440Z,57.53
2018-12-12T06:54:29.752Z,62.97
2018-12-12T06:57:32.862Z,40.17
2018-12-12T07:00:35.969Z,47.47
2018-12-12T07:03:39.125Z,35.77
2018-12-12T07:06:42.241Z,34.73
2018-12-12T07:09:45.329Z,22.60
2018-12-12T07:12:48.578Z,25.67
2018-12-12T07:15:51.668Z,24.60
2018-12-12T07:18:55.153Z,17.23
2018-12-12T07:21:58.245Z,19.80
2018-12-12T07:25:02.438Z,13.87
2018-12-12T07:28:05.554Z,15.13
2018-12-12T07:31:08.818Z,14.50
2018-12-12T07:34:11.958Z,11.13
2018-12-12T07:37:16.169Z,11.10
2018-12-12T07:40:19.318Z,6.90
2018-12-12T07:43:22.846Z,9.50
2018-12-12T07:46:26.055Z,11.00
2018-12-12T07:49:29.323Z,7.27
2018-12-12T07:52:32.573Z,4.37
2018-12-12T07:55:35.726Z,6.80
2018-12-12T07:58:38.922Z,4.37
2018-12-12T08:01:42.103Z,5.37
2018-12-12T08:04:45.259Z,8.10
2018-12-12T08:07:48.362Z,6.17
2018-12-12T08:10:51.609Z,4.43
2018-12-12T08:13:54.755Z,6.87
2018-12-12T08:16:57.994Z,10.20
2018-12-12T08:20:01.111Z,3.87
2018-12-12T08:23:04.489Z,5.60
2018-12-12T08:26:07.627Z,8.93
2018-12-12T08:32:20.556Z,7.70
2018-12-12T08:35:23.767Z,8.10
2018-12-12T08:38:26.923Z,7.37
2018-12-12T08:41:30.045Z,6.40
2018-12-12T08:44:33.151Z,6.93
2018-12-12T08:47:36.331Z,7.57
2018-12-12T08:50:39.401Z,5.67
2018-12-12T08:53:42.506Z,8.93
2018-12-12T08:56:45.630Z,6.53
2018-12-12T08:59:48.911Z,6.90
2018-12-12T09:02:52.171Z,5.67
2018-12-12T09:05:55.416Z,3.57
2018-12-12T09:08:58.542Z,4.10
2018-12-12T09:12:05.282Z,7.90
2018-12-12T09:15:08.561Z,4.93
2018-12-12T09:18:11.756Z,3.17
2018-12-12T09:21:14.884Z,3.67
2018-12-12T09:24:18.054Z,2.30
2018-12-12T09:27:21.167Z,3.47
2018-12-12T09:30:24.360Z,2.73
2018-12-12T09:33:27.591Z,4.27
2018-12-12T09:36:30.743Z,2.73
2018-12-12T09:39:33.887Z,1.90
2018-12-12T09:42:37.090Z,2.83
2018-12-12T09:45:40.206Z,5.03
2018-12-12T09:48:43.289Z,3.70
2018-12-12T09:51:46.404Z,1.90
2018-12-12T09:54:50.584Z,1.83
2018-12-12T09:57:53.709Z,2.43
2018-12-12T10:00:57.887Z,2.63
2018-12-12T10:04:01.080Z,2.17
2018-12-12T10:07:04.260Z,2.67
2018-12-12T10:10:07.452Z,3.97
2018-12-12T10:14:14.036Z,3.07
2018-12-12T10:17:18.325Z,4.53
2018-12-12T10:20:21.407Z,2.03
2018-12-12T10:23:24.583Z,2.93
2018-12-12T10:26:27.754Z,3.50
2018-12-12T10:32:40.325Z,2.13
2018-12-12T10:35:43.584Z,1.83
2018-12-12T10:38:46.758Z,1.93
2018-12-12T10:41:49.994Z,3.20
2018-12-12T10:44:53.141Z,2.73
2018-12-12T10:47:56.320Z,2.10
2018-12-12T10:50:59.530Z,3.07
2018-12-12T10:54:02.634Z,2.27
2018-12-12T10:57:05.812Z,2.33
2018-12-12T11:00:12.895Z,2.77
2018-12-12T11:03:21.239Z,3.57
2018-12-12T11:06:24.535Z,1.83
2018-12-12T11:09:27.691Z,3.13
2018-12-12T11:12:30.882Z,2.30
2018-12-12T11:15:34.076Z,2.17
2018-12-12T11:18:37.277Z,2.23
2018-12-12T11:21:40.381Z,2.70
2018-12-12T11:24:43.559Z,1.90
2018-12-12T11:27:46.751Z,3.10
2018-12-12T11:30:49.975Z,2.83
2018-12-12T11:33:53.103Z,1.93
2018-12-12T11:36:56.301Z,1.97
2018-12-12T11:40:00.514Z,2.50
2018-12-12T11:43:03.656Z,3.37
2018-12-12T11:46:06.866Z,2.03
2018-12-12T11:49:09.967Z,2.07
2018-12-12T11:52:13.137Z,2.13
2018-12-12T11:55:16.306Z,1.67
2018-12-12T11:58:19.422Z,2.07
2018-12-12T12:01:22.546Z,2.80
2018-12-12T12:04:25.672Z,2.47
2018-12-12T12:07:28.754Z,1.90
2018-12-12T12:10:31.953Z,2.00
2018-12-12T12:13:35.074Z,2.63
2018-12-12T12:16:38.189Z,2.53
2018-12-12T12:19:41.386Z,1.97
2018-12-12T12:22:51.094Z,1.80
2018-12-12T12:25:54.370Z,2.30
2018-12-12T12:28:57.795Z,2.10
2018-12-12T12:32:00.954Z,2.73
2018-12-12T12:35:04.404Z,2.23
2018-12-12T12:38:07.523Z,2.03
2018-12-12T12:41:10.737Z,3.70
2018-12-12T12:44:14.096Z,2.60
2018-12-12T12:47:17.282Z,2.17
2018-12-12T12:50:20.412Z,3.03
2018-12-12T12:53:23.645Z,1.80
2018-12-12T12:56:26.934Z,3.77
2018-12-12T12:59:30.096Z,1.77
2018-12-12T13:02:33.283Z,2.40
2018-12-12T13:05:36.489Z,2.83
2018-12-12T13:08:39.691Z,1.90
2018-12-12T13:11:42.878Z,3.63
2018-12-12T13:14:46.064Z,3.33
2018-12-12T13:17:49.283Z,5.00
2018-12-12T13:20:52.518Z,4.03
2018-12-12T13:23:55.734Z,5.37
2018-12-12T13:26:58.912Z,4.40
2018-12-12T13:30:02.186Z,2.30
2018-12-12T13:33:05.420Z,2.17
2018-12-12T13:36:08.667Z,4.03
2018-12-12T13:39:11.965Z,2.13
2018-12-12T13:42:15.196Z,3.10
2018-12-12T13:45:18.364Z,3.57
2018-12-12T13:48:21.543Z,3.53
2018-12-12T13:51:24.720Z,3.17
2018-12-12T13:54:27.890Z,3.23
2018-12-12T13:57:31.098Z,4.57
2018-12-12T14:00:39.091Z,2.70
2018-12-12T14:03:39.358Z,7.87
2018-12-12T14:06:42.550Z,4.60
2018-12-12T14:09:45.751Z,2.63
2018-12-12T14:12:49.057Z,2.50
2018-12-12T14:15:52.314Z,3.37
2018-12-12T14:18:55.428Z,4.60
2018-12-12T14:21:58.629Z,7.23
2018-12-12T14:25:01.742Z,6.20
2018-12-12T14:28:05.018Z,4.13
2018-12-12T14:31:08.326Z,2.47
2018-12-12T14:34:11.554Z,4.43
2018-12-12T14:37:14.694Z,4.60
2018-12-12T14:40:17.887Z,2.90
2018-12-12T14:43:20.988Z,2.77
2018-12-12T14:46:24.076Z,3.63
2018-12-12T14:49:27.190Z,2.50
2018-12-12T14:52:31.436Z,2.43
2018-12-12T14:55:34.734Z,2.27
2018-12-12T14:58:37.811Z,3.07
2018-12-12T15:01:40.967Z,3.27
2018-12-12T15:04:44.123Z,2.37
2018-12-12T15:07:47.279Z,4.90
2018-12-12T15:10:50.510Z,2.90
2018-12-12T15:13:54.687Z,3.30
2018-12-12T15:16:57.791Z,1.90
2018-12-12T15:20:00.927Z,3.33
2018-12-12T15:23:04.225Z,1.80
2018-12-12T15:26:07.352Z,1.67
2018-12-12T15:29:10.507Z,1.50
2018-12-12T15:32:13.621Z,2.33
2018-12-12T15:35:16.840Z,4.43
2018-12-12T15:38:20.061Z,3.17
2018-12-12T15:41:23.299Z,5.90
2018-12-12T15:44:26.521Z,5.20
2018-12-12T15:47:29.732Z,5.33
2018-12-12T15:50:32.849Z,2.63
2018-12-12T15:53:36.184Z,6.63
2018-12-12T15:56:39.362Z,2.77
2018-12-12T15:59:42.495Z,3.00
2018-12-12T16:02:45.895Z,2.20
2018-12-12T16:05:49.143Z,3.77
2018-12-12T16:08:52.344Z,1.67
2018-12-12T16:11:55.430Z,3.87
2018-12-12T16:14:58.671Z,2.77
2018-12-12T16:18:01.766Z,3.53
2018-12-12T16:21:04.945Z,2.43
2018-12-12T16:24:08.043Z,2.43
2018-12-12T16:27:11.302Z,2.53
2018-12-12T16:30:14.444Z,3.10
2018-12-12T16:33:17.631Z,1.90
2018-12-12T16:36:20.760Z,4.43
2018-12-12T16:39:23.939Z,4.10
2018-12-12T16:42:27.136Z,2.57
2018-12-12T16:45:30.411Z,4.10
2018-12-12T16:48:33.531Z,2.47
2018-12-12T16:51:36.808Z,1.60
2018-12-12T16:54:40.243Z,2.47
2018-12-12T16:57:43.512Z,3.37
2018-12-12T17:00:46.622Z,2.30
2018-12-12T17:03:53.602Z,3.73
2018-12-12T17:06:56.888Z,4.13
2018-12-12T17:30:42.355Z,4.10
2018-12-12T17:33:49.933Z,6.13
2018-12-12T17:37:02.341Z,3.03
2018-12-12T17:40:13.221Z,3.67
2018-12-12T17:43:17.476Z,5.70
2018-12-12T17:46:20.644Z,9.43
2018-12-12T17:49:25.778Z,146.10
2018-12-12T17:52:28.947Z,111.63
2018-12-12T17:55:32.026Z,81.97
2018-12-12T17:58:35.171Z,69.93
2018-12-12T18:01:38.367Z,69.77
2018-12-12T18:04:41.547Z,63.87
2018-12-12T18:07:44.710Z,54.13
2018-12-12T18:10:50.755Z,45.43
2018-12-12T18:13:53.921Z,39.43
2018-12-12T18:16:57.098Z,37.10
2018-12-12T18:20:01.791Z,29.17
2018-12-12T18:23:05.076Z,25.07
2018-12-12T18:26:08.985Z,24.20
2018-12-12T18:29:12.193Z,18.80
2018-12-12T18:32:15.358Z,15.33
2018-12-12T18:35:21.849Z,14.37
2018-12-12T18:38:23.764Z,17.30
2018-12-12T18:41:26.949Z,17.07
2018-12-12T18:44:30.179Z,16.70
2018-12-12T18:47:33.390Z,12.50
2018-12-12T18:50:36.620Z,10.83
2018-12-12T18:57:17.768Z,11.00
2018-12-12T19:00:21.055Z,7.97
2018-12-12T19:03:24.188Z,7.67
2018-12-12T19:06:27.560Z,8.97
2018-12-12T19:09:30.864Z,11.93
2018-12-12T19:12:34.176Z,8.17
2018-12-12T19:15:37.478Z,9.60
2018-12-12T19:18:40.793Z,7.83
2018-12-12T19:21:44.071Z,9.73
2018-12-12T19:24:47.284Z,10.33
2018-12-12T19:27:50.456Z,8.80
2018-12-12T19:30:53.708Z,5.40
2018-12-12T19:33:56.966Z,10.67
2018-12-12T19:37:00.231Z,8.63
2018-12-12T19:40:03.587Z,10.07
2018-12-12T19:43:06.761Z,6.87
2018-12-12T19:46:09.963Z,7.80
2018-12-12T19:49:13.072Z,7.77
2018-12-12T19:52:16.362Z,27.60
2018-12-12T19:55:19.570Z,51.03
2018-12-12T19:58:22.911Z,68.30
2018-12-12T20:01:26.179Z,31.40
2018-12-12T20:04:29.451Z,22.87
2018-12-12T20:07:32.954Z,19.70
2018-12-12T20:10:36.347Z,20.07
2018-12-12T20:13:39.581Z,15.97
2018-12-12T20:16:42.815Z,16.97
2018-12-12T20:19:46.117Z,13.60
2018-12-12T20:22:49.245Z,11.53
2018-12-12T20:25:52.535Z,12.30
2018-12-12T20:28:55.716Z,9.20
2018-12-12T20:31:58.940Z,10.30
2018-12-12T20:35:02.143Z,14.83
2018-12-12T20:38:07.419Z,13.37
2018-12-12T20:41:10.618Z,8.90
2018-12-12T20:44:13.900Z,10.07
2018-12-12T20:47:17.133Z,13.20
2018-12-12T20:50:20.421Z,8.47
2018-12-12T20:53:23.623Z,9.10
2018-12-12T20:56:26.910Z,9.77
2018-12-12T20:59:31.179Z,14.50
2018-12-12T21:02:34.536Z,12.87
2018-12-12T21:05:37.821Z,13.83
2018-12-12T21:08:42.026Z,9.90
2018-12-12T21:11:45.280Z,7.87
2018-12-12T21:14:48.608Z,10.33
2018-12-12T21:17:51.783Z,13.57
2018-12-12T21:20:55.047Z,29.03
2018-12-12T21:23:58.204Z,118.63
2018-12-12T21:27:01.485Z,110.07
2018-12-12T21:30:05.054Z,102.97
2018-12-12T21:33:08.255Z,90.40
2018-12-12T21:36:11.433Z,84.77
2018-12-12T21:39:14.559Z,68.80
2018-12-12T21:42:17.681Z,56.17
2018-12-12T21:45:20.834Z,47.60
2018-12-12T21:48:24.161Z,43.70
2018-12-12T21:51:27.461Z,35.63
2018-12-12T21:54:30.591Z,88.83
2018-12-12T21:57:33.789Z,96.90
2018-12-12T22:00:37.078Z,74.00
2018-12-12T22:03:40.288Z,58.33
2018-12-12T22:06:43.444Z,47.00
2018-12-12T22:09:46.644Z,39.13
2018-12-12T22:12:50.007Z,32.70
2018-12-12T22:15:53.174Z,27.77
2018-12-12T22:18:56.361Z,25.10
2018-12-12T22:21:59.562Z,19.53
2018-12-12T22:25:02.731Z,32.37
2018-12-12T22:28:06.594Z,21.93
2018-12-12T22:31:09.825Z,32.27
2018-12-12T22:34:13.236Z,16.70
2018-12-12T22:37:16.392Z,16.33
2018-12-12T22:40:19.551Z,12.57
2018-12-12T22:43:22.708Z,13.30
2018-12-12T22:46:25.826Z,17.00
2018-12-12T22:49:28.942Z,9.93
2018-12-12T22:52:32.086Z,9.00
2018-12-12T22:55:35.238Z,9.43
2018-12-12T22:58:38.402Z,10.30
2018-12-12T23:01:41.575Z,9.93
2018-12-12T23:04:44.764Z,8.40
2018-12-12T23:07:47.960Z,7.53
2018-12-12T23:10:51.162Z,9.07
2018-12-12T23:13:54.281Z,6.73
2018-12-12T23:16:57.554Z,6.33
2018-12-12T23:20:01.769Z,12.67
2018-12-12T23:23:04.943Z,9.97
2018-12-12T23:26:08.090Z,5.97
2018-12-12T23:29:11.228Z,6.33
2018-12-12T23:33:38.898Z,4.53
2018-12-12T23:36:42.166Z,8.97
2018-12-12T23:39:45.444Z,5.60
2018-12-12T23:42:48.663Z,6.47
2018-12-12T23:45:51.854Z,4.93
2018-12-12T23:48:54.986Z,5.07
2018-12-12T23:51:58.142Z,5.20
2018-12-12T23:55:01.264Z,5.60
2018-12-12T23:58:04.555Z,2.97
